createdAt,value
2023-04-26T00:00:48.876Z,0.70
2023-04-26T00:01:49.034Z,0.58
2023-04-26T00:02:49.068Z,0.62
2023-04-26T00:03:49.155Z,0.68
2023-04-26T00:04:49.290Z,0.60
2023-04-26T00:05:49.207Z,0.70
2023-04-26T00:06:49.192Z,0.62
2023-04-26T00:07:49.225Z,0.62
2023-04-26T00:08:49.393Z,0.67
2023-04-26T00:09:49.336Z,0.57
2023-04-26T00:10:49.419Z,0.83
2023-04-26T00:11:49.419Z,0.65
2023-04-26T00:12:49.481Z,0.80
2023-04-26T00:13:49.532Z,0.94
2023-04-26T00:14:49.578Z,0.56
2023-04-26T00:15:49.642Z,0.84
2023-04-26T00:16:49.697Z,0.75
2023-04-26T00:17:49.763Z,0.79
2023-04-26T00:18:49.786Z,0.73
2023-04-26T00:19:49.812Z,0.66
2023-04-26T00:20:49.881Z,0.62
2023-04-26T00:21:49.903Z,0.78
2023-04-26T00:22:49.987Z,0.79
2023-04-26T00:23:49.986Z,0.61
2023-04-26T00:24:50.046Z,0.63
2023-04-26T00:25:50.101Z,0.57
2023-04-26T00:26:50.122Z,0.84
2023-04-26T00:27:50.176Z,0.70
2023-04-26T00:28:50.397Z,0.81
2023-04-26T00:29:50.295Z,0.56
2023-04-26T00:30:50.347Z,0.55
2023-04-26T00:31:50.390Z,0.62
2023-04-26T00:32:50.409Z,0.66
2023-04-26T00:33:50.459Z,0.71
2023-04-26T00:34:50.474Z,0.68
2023-04-26T00:35:50.533Z,0.64
2023-04-26T00:36:50.588Z,0.77
2023-04-26T00:37:50.608Z,0.67
2023-04-26T00:38:51.019Z,0.73
2023-04-26T00:39:50.676Z,0.58
2023-04-26T00:40:50.716Z,0.94
2023-04-26T00:41:50.778Z,0.88
2023-04-26T00:42:50.834Z,0.62
2023-04-26T00:43:50.855Z,0.60
2023-04-26T00:44:50.901Z,0.58
2023-04-26T00:45:50.966Z,0.69
2023-04-26T00:46:50.944Z,0.58
2023-04-26T00:47:50.993Z,0.51
2023-04-26T00:48:51.100Z,0.70
2023-04-26T00:49:51.048Z,0.59
2023-04-26T00:50:50.987Z,0.88
2023-04-26T00:51:51.051Z,0.56
2023-04-26T00:52:51.058Z,0.69
2023-04-26T00:53:51.031Z,0.59
2023-04-26T00:54:51.037Z,1.01
2023-04-26T00:55:51.088Z,0.53
2023-04-26T00:56:51.088Z,0.48
2023-04-26T00:57:51.070Z,0.87
2023-04-26T00:58:51.243Z,0.67
2023-04-26T00:59:51.069Z,0.68
2023-04-26T01:00:51.134Z,0.73
2023-04-26T01:01:51.077Z,0.85
2023-04-26T01:02:51.153Z,0.66
2023-04-26T01:03:51.438Z,0.47
2023-04-26T01:04:51.134Z,0.59
2023-04-26T01:05:51.197Z,0.72
2023-04-26T01:06:51.235Z,0.52
2023-04-26T01:07:51.291Z,1.15
2023-04-26T01:08:51.468Z,0.80
2023-04-26T01:09:51.401Z,0.68
2023-04-26T01:10:51.466Z,0.77
2023-04-26T01:11:51.526Z,0.68
2023-04-26T01:12:51.571Z,0.65
2023-04-26T01:13:51.678Z,0.60
2023-04-26T01:14:51.713Z,0.67
2023-04-26T01:15:51.767Z,0.55
2023-04-26T01:16:51.838Z,0.62
2023-04-26T01:17:51.963Z,0.61
2023-04-26T01:18:52.060Z,0.76
2023-04-26T01:19:51.979Z,0.58
2023-04-26T01:20:52.092Z,0.51
2023-04-26T01:21:52.135Z,0.45
2023-04-26T01:22:52.161Z,0.64
2023-04-26T01:23:52.230Z,0.49
2023-04-26T01:24:52.263Z,0.90
2023-04-26T01:25:52.329Z,0.72
2023-04-26T01:26:52.390Z,0.94
2023-04-26T01:27:52.430Z,0.71
2023-04-26T01:28:52.832Z,0.49
2023-04-26T01:29:52.509Z,1.12
2023-04-26T01:30:52.597Z,0.66
2023-04-26T01:31:52.613Z,0.63
2023-04-26T01:32:52.711Z,0.78
2023-04-26T01:33:52.701Z,0.55
2023-04-26T01:34:52.733Z,0.68
2023-04-26T01:35:52.823Z,0.54
2023-04-26T01:36:52.882Z,0.34
2023-04-26T01:37:52.910Z,0.66
2023-04-26T01:38:53.076Z,0.53
2023-04-26T01:39:52.981Z,0.65
2023-04-26T01:40:53.009Z,0.56
2023-04-26T01:41:53.079Z,0.90
2023-04-26T01:42:53.146Z,0.52
2023-04-26T01:43:53.171Z,0.71
2023-04-26T01:44:53.217Z,0.46
2023-04-26T01:45:53.268Z,0.45
2023-04-26T01:46:53.268Z,0.69
2023-04-26T01:47:53.316Z,0.74
2023-04-26T01:48:53.547Z,0.51
2023-04-26T01:49:53.385Z,0.50
2023-04-26T01:50:53.438Z,0.53
2023-04-26T01:51:53.504Z,0.68
2023-04-26T01:52:53.514Z,0.54
2023-04-26T01:53:53.544Z,0.41
2023-04-26T01:54:53.582Z,0.47
2023-04-26T01:55:53.612Z,0.49
2023-04-26T01:56:53.666Z,0.41
2023-04-26T01:57:53.680Z,0.39
2023-04-26T01:58:53.892Z,0.60
2023-04-26T01:59:53.833Z,0.62
2023-04-26T02:00:53.835Z,0.43
2023-04-26T02:01:53.901Z,0.82
2023-04-26T02:02:54.020Z,0.79
2023-04-26T02:03:53.915Z,0.39
2023-04-26T02:04:54.021Z,0.73
2023-04-26T02:05:53.944Z,0.44
2023-04-26T02:06:54.008Z,0.53
2023-04-26T02:07:53.991Z,0.71
2023-04-26T02:08:54.358Z,0.34
2023-04-26T02:09:54.067Z,0.66
2023-04-26T02:10:54.107Z,0.68
2023-04-26T02:11:54.113Z,0.51
2023-04-26T02:12:54.161Z,0.62
2023-04-26T02:13:54.181Z,0.66
2023-04-26T02:14:54.207Z,0.45
2023-04-26T02:15:54.291Z,0.44
2023-04-26T02:16:54.272Z,0.52
2023-04-26T02:17:54.329Z,0.55
2023-04-26T02:18:54.716Z,0.46
2023-04-26T02:19:54.359Z,0.39
2023-04-26T02:20:54.363Z,0.49
2023-04-26T02:21:54.401Z,0.50
2023-04-26T02:22:54.390Z,0.59
2023-04-26T02:23:54.459Z,0.53
2023-04-26T02:24:54.467Z,0.70
2023-04-26T02:25:54.464Z,0.58
2023-04-26T02:26:54.622Z,0.97
2023-04-26T02:27:54.513Z,0.57
2023-04-26T02:28:54.737Z,0.59
2023-04-26T02:29:54.576Z,0.52
2023-04-26T02:30:54.589Z,0.44
2023-04-26T02:31:54.692Z,0.69
2023-04-26T02:32:54.637Z,0.52
2023-04-26T02:33:54.652Z,0.37
2023-04-26T02:34:54.676Z,0.54
2023-04-26T02:35:54.713Z,0.57
2023-04-26T02:36:54.725Z,0.39
2023-04-26T02:37:54.765Z,0.71
2023-04-26T02:38:54.915Z,0.59
2023-04-26T02:39:54.735Z,0.65
2023-04-26T02:40:54.761Z,0.51
2023-04-26T02:41:54.771Z,0.50
2023-04-26T02:42:54.763Z,0.36
2023-04-26T02:43:54.771Z,0.53
2023-04-26T02:44:54.803Z,0.58
2023-04-26T02:45:54.796Z,0.59
2023-04-26T02:46:54.844Z,0.59
2023-04-26T02:47:54.881Z,0.54
2023-04-26T02:48:54.939Z,0.49
2023-04-26T02:49:54.910Z,0.50
2023-04-26T02:50:54.880Z,0.57
2023-04-26T02:51:54.949Z,0.73
2023-04-26T02:52:54.955Z,0.84
2023-04-26T02:53:54.968Z,0.55
2023-04-26T02:54:54.958Z,0.75
2023-04-26T02:55:54.979Z,0.56
2023-04-26T02:56:54.978Z,0.58
2023-04-26T02:57:54.981Z,0.63
2023-04-26T02:58:55.016Z,0.55
2023-04-26T02:59:55.022Z,0.45
2023-04-26T03:00:55.033Z,0.75
2023-04-26T03:01:55.072Z,0.46
2023-04-26T03:02:55.179Z,0.46
2023-04-26T03:03:55.170Z,0.42
2023-04-26T03:04:55.087Z,0.74
2023-04-26T03:05:55.129Z,0.58
2023-04-26T03:06:55.162Z,0.57
2023-04-26T03:07:55.140Z,0.86
2023-04-26T03:08:55.966Z,0.64
2023-04-26T03:09:55.182Z,0.52
2023-04-26T03:10:55.154Z,0.58
2023-04-26T03:11:55.177Z,0.45
2023-04-26T03:12:55.188Z,0.53
2023-04-26T03:13:55.193Z,0.49
2023-04-26T03:14:55.251Z,0.48
2023-04-26T03:15:55.226Z,0.71
2023-04-26T03:16:55.277Z,0.54
2023-04-26T03:17:55.269Z,0.50
2023-04-26T03:18:55.384Z,0.63
2023-04-26T03:19:55.261Z,0.65
2023-04-26T03:20:55.296Z,0.63
2023-04-26T03:21:55.302Z,0.61
2023-04-26T03:22:55.307Z,0.60
2023-04-26T03:23:55.300Z,0.86
2023-04-26T03:24:55.293Z,0.67
2023-04-26T03:25:55.322Z,0.61
2023-04-26T03:26:55.344Z,0.59
2023-04-26T03:27:55.356Z,0.50
2023-04-26T03:28:55.431Z,0.46
2023-04-26T03:29:55.376Z,0.60
2023-04-26T03:30:55.352Z,0.58
2023-04-26T03:31:55.400Z,0.47
2023-04-26T03:32:55.411Z,0.53
2023-04-26T03:33:55.391Z,0.53
2023-04-26T03:34:55.414Z,0.74
2023-04-26T03:35:55.429Z,0.58
2023-04-26T03:36:55.418Z,0.54
2023-04-26T03:37:58.017Z,0.74
2023-04-26T03:38:55.418Z,0.64
2023-04-26T03:39:55.382Z,0.68
2023-04-26T03:40:55.411Z,0.58
2023-04-26T03:41:55.388Z,0.52
2023-04-26T03:42:55.425Z,0.51
2023-04-26T03:43:55.415Z,0.85
2023-04-26T03:44:55.348Z,0.70
2023-04-26T03:45:55.397Z,0.77
2023-04-26T03:46:55.360Z,0.58
2023-04-26T03:47:55.436Z,0.74
2023-04-26T03:48:55.365Z,0.63
2023-04-26T03:49:55.330Z,0.65
2023-04-26T03:50:55.350Z,0.47
2023-04-26T03:51:55.335Z,0.64
2023-04-26T03:52:55.304Z,0.41
2023-04-26T03:53:55.294Z,0.57
2023-04-26T03:54:55.292Z,0.36
2023-04-26T03:55:55.277Z,0.88
2023-04-26T03:56:55.282Z,0.66
2023-04-26T03:57:55.282Z,0.68
2023-04-26T03:58:55.270Z,0.47
2023-04-26T03:59:55.237Z,0.84
2023-04-26T04:00:55.256Z,0.79
2023-04-26T04:01:55.246Z,0.50
2023-04-26T04:02:55.322Z,0.44
2023-04-26T04:03:55.486Z,0.59
2023-04-26T04:04:55.398Z,0.43
2023-04-26T04:05:55.228Z,0.63
2023-04-26T04:06:55.198Z,0.73
2023-04-26T04:07:55.186Z,0.74
2023-04-26T04:08:55.410Z,0.59
2023-04-26T04:09:55.204Z,0.76
2023-04-26T04:10:55.174Z,0.55
2023-04-26T04:11:55.170Z,0.47
2023-04-26T04:12:55.161Z,0.58
2023-04-26T04:13:55.145Z,0.59
2023-04-26T04:14:55.124Z,0.49
2023-04-26T04:15:55.174Z,0.63
2023-04-26T04:16:55.134Z,0.46
2023-04-26T04:17:55.228Z,0.72
2023-04-26T04:18:55.325Z,0.61
2023-04-26T04:19:55.152Z,0.67
2023-04-26T04:20:55.118Z,0.45
2023-04-26T04:21:55.090Z,0.78
2023-04-26T04:22:55.104Z,0.60
2023-04-26T04:23:55.207Z,0.54
2023-04-26T04:24:55.189Z,0.77
2023-04-26T04:25:55.179Z,0.68
2023-04-26T04:26:55.067Z,0.72
2023-04-26T04:27:55.051Z,0.76
2023-04-26T04:28:55.156Z,0.70
2023-04-26T04:29:55.031Z,0.57
2023-04-26T04:30:55.090Z,0.73
2023-04-26T04:31:55.048Z,0.73
2023-04-26T04:32:55.019Z,0.67
2023-04-26T04:33:55.001Z,0.57
2023-04-26T04:34:55.049Z,0.81
2023-04-26T04:35:54.969Z,0.83
2023-04-26T04:36:54.981Z,0.65
2023-04-26T04:37:54.968Z,0.72
2023-04-26T04:38:55.105Z,0.58
2023-04-26T04:39:54.964Z,0.61
2023-04-26T04:40:54.948Z,0.52
2023-04-26T04:41:54.936Z,0.53
2023-04-26T04:42:54.969Z,0.67
2023-04-26T04:43:54.929Z,0.93
2023-04-26T04:44:54.929Z,0.72
2023-04-26T04:45:54.936Z,0.75
2023-04-26T04:46:54.996Z,0.66
2023-04-26T04:47:54.991Z,0.60
2023-04-26T04:48:54.976Z,0.69
2023-04-26T04:49:54.917Z,0.60
2023-04-26T04:50:54.911Z,0.75
2023-04-26T04:51:54.871Z,0.64
2023-04-26T04:52:54.887Z,0.73
2023-04-26T04:53:54.881Z,0.77
2023-04-26T04:54:54.855Z,0.82
2023-04-26T04:55:54.850Z,1.29
2023-04-26T04:56:54.867Z,0.52
2023-04-26T04:57:54.842Z,0.60
2023-04-26T04:58:54.844Z,0.65
2023-04-26T04:59:54.814Z,0.76
2023-04-26T05:01:01.820Z,0.68
2023-04-26T05:01:54.820Z,0.89
2023-04-26T05:02:54.888Z,0.80
2023-04-26T05:03:55.102Z,0.67
2023-04-26T05:04:54.827Z,0.88
2023-04-26T05:05:54.792Z,0.94
2023-04-26T05:06:54.799Z,0.59
2023-04-26T05:07:54.764Z,0.82
2023-04-26T05:08:54.758Z,0.78
2023-04-26T05:09:54.759Z,0.84
2023-04-26T05:10:54.774Z,0.91
2023-04-26T05:11:54.789Z,0.61
2023-04-26T05:12:54.743Z,0.74
2023-04-26T05:13:54.898Z,1.19
2023-04-26T05:14:54.728Z,1.37
2023-04-26T05:15:54.786Z,1.94
2023-04-26T05:16:54.933Z,1.84
2023-04-26T05:17:54.732Z,1.72
2023-04-26T05:18:54.729Z,1.92
2023-04-26T05:19:54.690Z,1.53
2023-04-26T05:20:54.693Z,1.80
2023-04-26T05:21:54.698Z,1.86
2023-04-26T05:22:54.675Z,2.20
2023-04-26T05:23:54.986Z,1.67
2023-04-26T05:24:54.684Z,1.49
2023-04-26T05:25:54.675Z,1.52
2023-04-26T05:26:54.638Z,1.69
2023-04-26T05:27:54.646Z,1.50
2023-04-26T05:28:54.623Z,1.62
2023-04-26T05:29:54.676Z,1.97
2023-04-26T05:30:54.595Z,1.37
2023-04-26T05:31:55.103Z,1.28
2023-04-26T05:32:54.671Z,1.76
2023-04-26T05:33:54.727Z,1.45
2023-04-26T05:34:54.591Z,1.21
2023-04-26T05:35:54.594Z,1.68
2023-04-26T05:36:55.072Z,1.90
2023-04-26T05:37:54.735Z,1.42
2023-04-26T05:38:54.578Z,1.40
2023-04-26T05:39:54.585Z,1.31
2023-04-26T05:40:54.523Z,1.78
2023-04-26T05:41:54.582Z,1.69
2023-04-26T05:42:54.536Z,2.19
2023-04-26T05:43:54.767Z,1.91
2023-04-26T05:44:54.693Z,1.94
2023-04-26T05:46:01.843Z,2.17
2023-04-26T05:46:55.094Z,2.07
2023-04-26T05:47:54.732Z,2.40
2023-04-26T05:48:54.707Z,1.98
2023-04-26T05:49:54.714Z,2.08
2023-04-26T05:50:54.659Z,2.45
2023-04-26T05:51:55.116Z,1.93
2023-04-26T05:52:54.659Z,1.75
2023-04-26T05:53:54.890Z,1.71
2023-04-26T05:54:54.630Z,1.74
2023-04-26T05:55:54.646Z,1.79
2023-04-26T05:56:56.178Z,2.05
2023-04-26T05:57:54.883Z,1.96
2023-04-26T05:58:54.942Z,2.32
2023-04-26T05:59:54.989Z,2.23
2023-04-26T06:00:55.067Z,1.52
2023-04-26T06:01:55.151Z,1.87
2023-04-26T06:02:55.229Z,2.06
2023-04-26T06:03:58.122Z,2.16
2023-04-26T06:04:56.427Z,2.24
2023-04-26T06:05:55.152Z,2.00
2023-04-26T06:06:55.102Z,2.15
2023-04-26T06:07:55.111Z,1.91
2023-04-26T06:08:55.104Z,1.87
2023-04-26T06:09:55.060Z,1.81
2023-04-26T06:10:55.048Z,2.40
2023-04-26T06:11:55.066Z,1.94
2023-04-26T06:12:55.065Z,2.78
2023-04-26T06:13:55.392Z,1.86
2023-04-26T06:14:55.026Z,2.46
2023-04-26T06:15:55.045Z,2.66
2023-04-26T06:16:55.110Z,2.15
2023-04-26T06:17:55.057Z,2.38
2023-04-26T06:18:54.980Z,2.24
2023-04-26T06:19:55.005Z,2.72
2023-04-26T06:20:55.079Z,2.20
2023-04-26T06:21:55.147Z,2.07
2023-04-26T06:22:55.028Z,2.64
2023-04-26T06:23:55.440Z,2.64
2023-04-26T06:24:54.972Z,2.16
2023-04-26T06:25:55.022Z,2.44
2023-04-26T06:26:55.008Z,2.70
2023-04-26T06:27:54.949Z,2.22
2023-04-26T06:28:54.989Z,2.84
2023-04-26T06:29:54.983Z,2.60
2023-04-26T06:30:55.020Z,2.88
2023-04-26T06:31:55.135Z,3.54
2023-04-26T06:32:55.182Z,2.69
2023-04-26T06:33:55.400Z,3.03
2023-04-26T06:34:55.218Z,2.80
2023-04-26T06:35:55.286Z,3.57
2023-04-26T06:36:55.401Z,3.55
2023-04-26T06:37:55.395Z,4.10
2023-04-26T06:38:55.515Z,4.46
2023-04-26T06:39:55.563Z,6.14
2023-04-26T06:40:58.179Z,4.66
2023-04-26T06:41:55.627Z,3.90
2023-04-26T06:42:55.508Z,4.22
2023-04-26T06:43:55.669Z,4.91
2023-04-26T06:44:55.509Z,4.28
2023-04-26T06:45:55.526Z,4.89
2023-04-26T06:46:55.494Z,4.48
2023-04-26T06:47:55.506Z,4.96
2023-04-26T06:48:55.486Z,6.18
2023-04-26T06:49:55.636Z,4.57
2023-04-26T06:50:55.450Z,4.03
2023-04-26T06:51:55.525Z,3.97
2023-04-26T06:52:55.610Z,4.21
2023-04-26T06:53:55.537Z,3.27
2023-04-26T06:54:57.533Z,3.31
2023-04-26T06:55:55.484Z,3.78
2023-04-26T06:56:55.437Z,3.39
2023-04-26T06:57:55.640Z,3.83
2023-04-26T06:58:55.450Z,3.11
2023-04-26T06:59:55.425Z,4.09
2023-04-26T07:00:55.512Z,2.95
2023-04-26T07:01:55.466Z,2.84
2023-04-26T07:02:55.795Z,2.99
2023-04-26T07:03:55.972Z,2.79
2023-04-26T07:04:55.721Z,2.85
2023-04-26T07:05:55.556Z,2.26
2023-04-26T07:06:56.468Z,2.72
2023-04-26T07:07:55.672Z,2.81
2023-04-26T07:08:55.577Z,2.22
2023-04-26T07:09:55.666Z,2.16
2023-04-26T07:10:55.682Z,2.45
2023-04-26T07:11:55.588Z,2.48
2023-04-26T07:12:55.662Z,2.08
2023-04-26T07:13:55.798Z,1.94
2023-04-26T07:14:55.663Z,2.40
2023-04-26T07:15:55.723Z,3.33
2023-04-26T07:16:55.667Z,2.41
2023-04-26T07:17:55.756Z,2.49
2023-04-26T07:18:55.725Z,2.30
2023-04-26T07:19:56.345Z,2.46
2023-04-26T07:20:55.798Z,2.25
2023-04-26T07:21:55.768Z,2.34
2023-04-26T07:22:56.237Z,2.42
2023-04-26T07:23:55.829Z,2.48
2023-04-26T07:24:55.869Z,2.74
2023-04-26T07:25:57.661Z,2.27
2023-04-26T07:26:55.839Z,2.02
2023-04-26T07:27:56.118Z,2.66
2023-04-26T07:28:55.904Z,1.75
2023-04-26T07:29:55.907Z,1.73
2023-04-26T07:30:55.950Z,2.27
2023-04-26T07:31:55.986Z,2.47
2023-04-26T07:32:56.245Z,2.76
2023-04-26T07:33:56.200Z,2.45
2023-04-26T07:34:56.037Z,2.62
2023-04-26T07:35:56.065Z,3.18
2023-04-26T07:36:56.096Z,2.51
2023-04-26T07:37:56.176Z,3.14
2023-04-26T07:38:56.177Z,2.97
2023-04-26T07:39:56.186Z,2.91
2023-04-26T07:40:56.364Z,3.02
2023-04-26T07:41:56.211Z,2.75
2023-04-26T07:42:56.266Z,2.53
2023-04-26T07:43:56.262Z,2.33
2023-04-26T07:44:56.337Z,2.20
2023-04-26T07:45:56.299Z,3.45
2023-04-26T07:46:56.321Z,2.28
2023-04-26T07:47:56.500Z,2.96
2023-04-26T07:48:56.425Z,2.26
2023-04-26T07:49:56.424Z,2.19
2023-04-26T07:50:56.473Z,1.87
2023-04-26T07:51:56.521Z,2.07
2023-04-26T07:52:56.493Z,2.41
2023-04-26T07:53:56.509Z,2.22
2023-04-26T07:54:56.548Z,1.98
2023-04-26T07:55:56.558Z,2.38
2023-04-26T07:56:56.621Z,1.82
2023-04-26T07:57:57.187Z,2.70
2023-04-26T07:58:56.916Z,2.03
2023-04-26T07:59:56.793Z,1.68
2023-04-26T08:00:56.854Z,1.60
2023-04-26T08:01:56.941Z,1.43
2023-04-26T08:02:57.455Z,1.90
2023-04-26T08:03:57.400Z,1.32
2023-04-26T08:04:57.192Z,2.29
2023-04-26T08:05:57.169Z,1.47
2023-04-26T08:06:56.987Z,1.63
2023-04-26T08:07:57.226Z,1.72
2023-04-26T08:08:57.095Z,1.54
2023-04-26T08:09:57.022Z,1.76
2023-04-26T08:10:57.008Z,1.47
2023-04-26T08:11:57.082Z,1.82
2023-04-26T08:12:57.288Z,1.45
2023-04-26T08:13:57.027Z,1.62
2023-04-26T08:14:57.026Z,1.58
2023-04-26T08:15:57.048Z,1.87
2023-04-26T08:16:57.284Z,1.99
2023-04-26T08:17:57.079Z,1.15
2023-04-26T08:18:57.118Z,1.56
2023-04-26T08:19:57.178Z,1.38
2023-04-26T08:20:57.225Z,1.95
2023-04-26T08:21:57.362Z,1.93
2023-04-26T08:22:57.374Z,1.80
2023-04-26T08:23:57.471Z,1.39
2023-04-26T08:24:57.462Z,1.38
2023-04-26T08:25:57.515Z,1.25
2023-04-26T08:26:57.579Z,1.61
2023-04-26T08:27:57.718Z,1.12
2023-04-26T08:28:57.653Z,1.74
2023-04-26T08:29:57.709Z,1.36
2023-04-26T08:30:57.820Z,1.51
2023-04-26T08:31:57.991Z,1.95
2023-04-26T08:32:58.178Z,2.28
2023-04-26T08:33:57.909Z,1.85
2023-04-26T08:34:57.882Z,2.92
2023-04-26T08:35:57.938Z,2.54
2023-04-26T08:36:57.957Z,2.99
2023-04-26T08:37:58.157Z,3.72
2023-04-26T08:38:58.089Z,2.97
2023-04-26T08:39:58.136Z,2.74
2023-04-26T08:40:58.217Z,2.58
2023-04-26T08:41:58.241Z,2.38
2023-04-26T08:42:58.290Z,2.13
2023-04-26T08:43:58.386Z,1.87
2023-04-26T08:44:58.532Z,2.00
2023-04-26T08:45:58.562Z,1.93
2023-04-26T08:46:58.593Z,2.44
2023-04-26T08:47:58.748Z,2.15
2023-04-26T08:48:58.691Z,1.91
2023-04-26T08:49:58.764Z,2.38
2023-04-26T08:50:58.772Z,2.59
2023-04-26T08:51:58.808Z,3.15
2023-04-26T08:52:59.191Z,2.51
2023-04-26T08:53:58.841Z,2.25
2023-04-26T08:54:58.910Z,2.08
2023-04-26T08:55:58.847Z,1.85
2023-04-26T08:56:58.966Z,2.29
2023-04-26T08:57:59.225Z,2.38
2023-04-26T08:58:58.932Z,1.92
2023-04-26T08:59:58.887Z,2.16
2023-04-26T09:00:58.931Z,2.00
2023-04-26T09:01:58.953Z,1.86
2023-04-26T09:02:58.982Z,2.15
2023-04-26T09:03:59.479Z,1.98
2023-04-26T09:04:59.253Z,2.24
2023-04-26T09:05:59.475Z,1.90
2023-04-26T09:06:59.029Z,2.02
2023-04-26T09:07:59.110Z,1.75
2023-04-26T09:08:59.183Z,2.17
2023-04-26T09:09:59.205Z,1.79
2023-04-26T09:10:59.270Z,2.02
2023-04-26T09:11:59.317Z,1.98
2023-04-26T09:12:59.400Z,2.13
2023-04-26T09:13:59.709Z,1.85
2023-04-26T09:14:59.502Z,2.49
2023-04-26T09:16:00.139Z,2.35
2023-04-26T09:16:59.614Z,2.71
2023-04-26T09:17:59.738Z,2.22
2023-04-26T09:19:00.833Z,5.01
2023-04-26T09:19:59.810Z,4.28
2023-04-26T09:20:59.813Z,3.04
2023-04-26T09:21:59.897Z,2.80
2023-04-26T09:22:59.961Z,2.39
2023-04-26T09:24:00.057Z,2.28
2023-04-26T09:25:00.037Z,2.27
2023-04-26T09:26:00.131Z,1.82
2023-04-26T09:27:00.112Z,2.21
2023-04-26T09:28:00.163Z,2.41
2023-04-26T09:29:00.782Z,2.22
2023-04-26T09:30:00.302Z,2.14
2023-04-26T09:31:00.376Z,2.24
2023-04-26T09:32:00.504Z,1.95
2023-04-26T09:33:00.482Z,2.12
2023-04-26T09:34:00.617Z,1.67
2023-04-26T09:35:00.718Z,1.60
2023-04-26T09:36:00.613Z,1.64
2023-04-26T09:37:00.793Z,2.13
2023-04-26T09:38:05.650Z,1.65
2023-04-26T09:39:02.241Z,2.58
2023-04-26T09:40:00.857Z,1.83
2023-04-26T09:41:00.749Z,1.67
2023-04-26T09:42:00.719Z,1.40
2023-04-26T09:43:00.726Z,2.24
2023-04-26T09:44:00.737Z,2.12
2023-04-26T09:45:00.678Z,2.20
2023-04-26T09:46:00.685Z,2.24
2023-04-26T09:47:00.772Z,1.98
2023-04-26T09:48:00.678Z,2.82
2023-04-26T09:49:00.741Z,2.22
2023-04-26T09:50:00.772Z,2.65
2023-04-26T09:51:00.706Z,3.03
2023-04-26T09:52:00.706Z,2.42
2023-04-26T09:53:00.738Z,2.29
2023-04-26T09:54:01.314Z,2.25
2023-04-26T09:55:00.838Z,2.52
2023-04-26T09:56:00.862Z,2.42
2023-04-26T09:57:00.876Z,2.28
2023-04-26T09:58:01.011Z,2.26
2023-04-26T09:59:02.462Z,1.89
2023-04-26T10:00:01.218Z,2.32
2023-04-26T10:01:01.088Z,2.06
2023-04-26T10:02:01.161Z,1.89
2023-04-26T10:03:01.277Z,2.41
2023-04-26T10:04:01.408Z,1.81
2023-04-26T10:05:01.264Z,1.76
2023-04-26T10:06:01.249Z,2.06
2023-04-26T10:07:01.249Z,1.67
2023-04-26T10:08:01.299Z,1.73
2023-04-26T10:09:01.730Z,1.84
2023-04-26T10:10:01.376Z,1.54
2023-04-26T10:11:01.360Z,2.01
2023-04-26T10:12:01.379Z,1.98
2023-04-26T10:13:01.445Z,1.53
2023-04-26T10:14:01.492Z,1.59
2023-04-26T10:15:01.513Z,1.47
2023-04-26T10:16:01.608Z,1.81
2023-04-26T10:17:01.682Z,1.60
2023-04-26T10:18:01.723Z,1.58
2023-04-26T10:19:01.601Z,2.31
2023-04-26T10:20:01.637Z,1.57
2023-04-26T10:21:01.673Z,1.65
2023-04-26T10:22:01.751Z,1.36
2023-04-26T10:23:02.759Z,1.46
2023-04-26T10:24:01.697Z,1.73
2023-04-26T10:25:01.775Z,1.42
2023-04-26T10:26:02.765Z,1.21
2023-04-26T10:27:01.672Z,1.27
2023-04-26T10:28:01.643Z,1.64
2023-04-26T10:29:03.264Z,1.31
2023-04-26T10:30:01.708Z,1.64
2023-04-26T10:31:01.673Z,1.23
2023-04-26T10:32:01.751Z,1.57
2023-04-26T10:33:01.713Z,1.45
2023-04-26T10:34:01.607Z,1.19
2023-04-26T10:35:01.652Z,0.92
2023-04-26T10:36:01.621Z,1.60
2023-04-26T10:37:01.603Z,1.71
2023-04-26T10:38:01.702Z,1.90
2023-04-26T10:39:01.746Z,2.72
2023-04-26T10:40:01.634Z,1.95
2023-04-26T10:41:01.607Z,2.12
2023-04-26T10:42:01.576Z,2.22
2023-04-26T10:43:01.568Z,1.79
2023-04-26T10:44:01.754Z,2.44
2023-04-26T10:45:01.660Z,1.80
2023-04-26T10:46:01.723Z,2.43
2023-04-26T10:47:01.726Z,2.34
2023-04-26T10:48:01.788Z,1.62
2023-04-26T10:49:01.762Z,2.09
2023-04-26T10:50:03.660Z,2.11
2023-04-26T10:51:01.909Z,1.90
2023-04-26T10:52:01.749Z,1.55
2023-04-26T10:53:01.818Z,1.90
2023-04-26T10:54:02.277Z,1.62
2023-04-26T10:55:01.704Z,1.79
2023-04-26T10:56:01.714Z,2.05
2023-04-26T10:57:01.840Z,1.78
2023-04-26T10:58:01.715Z,1.65
2023-04-26T10:59:01.728Z,1.74
2023-04-26T11:00:01.694Z,1.86
2023-04-26T11:01:01.740Z,1.79
2023-04-26T11:02:01.651Z,2.21
2023-04-26T11:03:01.710Z,2.16
2023-04-26T11:04:01.834Z,1.58
2023-04-26T11:05:02.353Z,1.56
2023-04-26T11:06:01.643Z,1.92
2023-04-26T11:07:01.651Z,1.88
2023-04-26T11:08:01.651Z,1.41
2023-04-26T11:09:01.643Z,1.23
2023-04-26T11:10:01.617Z,1.75
2023-04-26T11:11:01.675Z,1.55
2023-04-26T11:12:01.622Z,1.69
2023-04-26T11:13:01.633Z,1.83
2023-04-26T11:14:01.608Z,1.61
2023-04-26T11:15:01.598Z,1.65
2023-04-26T11:16:01.615Z,1.70
2023-04-26T11:17:01.609Z,1.63
2023-04-26T11:18:01.570Z,1.63
2023-04-26T11:19:01.655Z,1.48
2023-04-26T11:20:01.588Z,1.60
2023-04-26T11:21:01.589Z,1.38
2023-04-26T11:22:01.571Z,1.25
2023-04-26T11:23:01.553Z,1.38
2023-04-26T11:24:01.562Z,1.82
2023-04-26T11:25:01.559Z,1.32
2023-04-26T11:26:01.568Z,1.72
2023-04-26T11:27:01.503Z,1.70
2023-04-26T11:28:01.513Z,1.55
2023-04-26T11:29:01.498Z,1.82
2023-04-26T11:30:01.854Z,1.82
2023-04-26T11:31:01.554Z,2.13
2023-04-26T11:32:01.514Z,2.02
2023-04-26T11:33:01.538Z,1.75
2023-04-26T11:34:01.475Z,1.83
2023-04-26T11:35:01.772Z,1.59
2023-04-26T11:36:01.486Z,2.13
2023-04-26T11:37:01.445Z,2.03
2023-04-26T11:38:01.439Z,1.97
2023-04-26T11:39:01.448Z,2.43
2023-04-26T11:40:01.458Z,1.54
2023-04-26T11:41:01.517Z,1.52
2023-04-26T11:42:01.398Z,1.64
2023-04-26T11:43:01.422Z,1.90
2023-04-26T11:44:01.453Z,1.80
2023-04-26T11:45:01.424Z,1.79
2023-04-26T11:46:01.429Z,1.78
2023-04-26T11:47:01.620Z,1.87
2023-04-26T11:48:01.454Z,2.06
2023-04-26T11:49:01.350Z,1.77
2023-04-26T11:50:01.404Z,1.72
2023-04-26T11:51:01.361Z,1.51
2023-04-26T11:52:01.336Z,1.67
2023-04-26T11:53:01.343Z,1.89
2023-04-26T11:54:01.348Z,1.60
2023-04-26T11:55:01.412Z,1.87
2023-04-26T11:56:01.334Z,1.55
2023-04-26T11:57:01.365Z,1.84
2023-04-26T11:58:01.350Z,1.82
2023-04-26T11:59:01.345Z,1.54
2023-04-26T12:00:01.319Z,1.61
2023-04-26T12:01:01.477Z,1.34
2023-04-26T12:02:01.316Z,1.37
2023-04-26T12:03:01.485Z,1.49
2023-04-26T12:04:01.376Z,1.59
2023-04-26T12:05:01.350Z,1.76
2023-04-26T12:06:01.270Z,1.58
2023-04-26T12:07:01.254Z,1.52
2023-04-26T12:08:01.267Z,1.28
2023-04-26T12:09:01.230Z,1.79
2023-04-26T12:10:01.243Z,1.86
2023-04-26T12:11:01.242Z,1.60
2023-04-26T12:12:01.230Z,1.53
2023-04-26T12:13:01.221Z,1.96
2023-04-26T12:14:01.221Z,1.60
2023-04-26T12:15:01.227Z,1.41
2023-04-26T12:16:02.609Z,1.48
2023-04-26T12:17:01.443Z,1.34
2023-04-26T12:18:01.457Z,1.40
2023-04-26T12:19:01.455Z,1.46
2023-04-26T12:20:01.472Z,2.13
2023-04-26T12:21:01.446Z,1.43
2023-04-26T12:22:01.496Z,1.27
2023-04-26T12:23:01.510Z,1.38
2023-04-26T12:24:01.544Z,1.67
2023-04-26T12:25:01.604Z,1.54
2023-04-26T12:26:01.611Z,1.65
2023-04-26T12:27:02.565Z,1.60
2023-04-26T12:28:01.695Z,1.21
2023-04-26T12:29:01.688Z,1.42
2023-04-26T12:30:01.753Z,1.89
2023-04-26T12:31:01.754Z,1.43
2023-04-26T12:32:01.783Z,1.21
2023-04-26T12:33:15.789Z,1.41
2023-04-26T12:34:02.747Z,1.05
2023-04-26T12:35:01.740Z,1.68
2023-04-26T12:36:01.745Z,1.50
2023-04-26T12:37:01.725Z,1.50
2023-04-26T12:38:01.757Z,1.15
2023-04-26T12:39:01.673Z,1.43
2023-04-26T12:40:01.692Z,1.35
2023-04-26T12:41:01.715Z,1.13
2023-04-26T12:42:01.707Z,1.45
2023-04-26T12:43:01.714Z,1.44
2023-04-26T12:44:01.738Z,1.46
2023-04-26T12:45:01.685Z,1.61
2023-04-26T12:46:01.736Z,1.38
2023-04-26T12:47:01.673Z,1.70
2023-04-26T12:48:01.744Z,1.79
2023-04-26T12:49:01.706Z,1.60
2023-04-26T12:50:01.770Z,1.56
2023-04-26T12:51:01.838Z,1.65
2023-04-26T12:52:01.890Z,1.36
2023-04-26T12:53:01.976Z,1.53
2023-04-26T12:54:01.993Z,1.36
2023-04-26T12:55:02.017Z,1.83
2023-04-26T12:56:02.123Z,1.60
2023-04-26T12:57:02.189Z,1.39
2023-04-26T12:58:02.336Z,1.41
2023-04-26T12:59:02.297Z,1.11
2023-04-26T13:00:02.349Z,1.40
2023-04-26T13:01:02.441Z,1.36
2023-04-26T13:02:02.437Z,1.30
2023-04-26T13:03:02.608Z,1.44
2023-04-26T13:04:02.687Z,1.40
2023-04-26T13:05:02.556Z,1.62
2023-04-26T13:06:02.584Z,1.38
2023-04-26T13:07:02.600Z,2.03
2023-04-26T13:08:02.639Z,1.35
2023-04-26T13:09:02.708Z,1.34
2023-04-26T13:10:02.681Z,1.67
2023-04-26T13:11:02.736Z,1.83
2023-04-26T13:12:02.739Z,1.07
2023-04-26T13:13:02.764Z,1.20
2023-04-26T13:14:02.787Z,1.61
2023-04-26T13:15:02.865Z,1.35
2023-04-26T13:16:02.896Z,1.32
2023-04-26T13:17:02.860Z,1.54
2023-04-26T13:18:02.909Z,1.35
2023-04-26T13:19:02.927Z,1.67